sensor_id;sensor_type;location;lat;lon;timestamp;P1;durP1;ratioP1;P2;durP2;ratioP2
18716;SDS011;9487;50.892;6.906;2024-03-17T00:02:15;11.03;;;9.33;;
18716;SDS011;9487;50.892;6.906;2024-03-17T00:04:40;13.10;;;9.87;;
18716;SDS011;9487;50.892;6.906;2024-03-17T00:07:09;11.13;;;9.93;;
18716;SDS011;9487;50.892;6.906;2024-03-17T00:09:34;10.03;;;8.90;;
18716;SDS011;9487;50.892;6.906;2024-03-17T00:12:01;11.43;;;9.30;;
18716;SDS011;9487;50.892;6.906;2024-03-17T00:14:28;12.23;;;9.43;;
18716;SDS011;9487;50.892;6.906;2024-03-17T00:16:54;11.20;;;10.03;;
18716;SDS011;9487;50.892;6.906;2024-03-17T00:19:23;11.37;;;9.00;;
18716;SDS011;9487;50.892;6.906;2024-03-17T00:21:49;10.20;;;8.37;;
18716;SDS011;9487;50.892;6.906;2024-03-17T00:24:18;9.83;;;8.83;;
18716;SDS011;9487;50.892;6.906;2024-03-17T00:26:44;10.10;;;9.10;;
18716;SDS011;9487;50.892;6.906;2024-03-17T00:29:11;10.83;;;8.10;;
18716;SDS011;9487;50.892;6.906;2024-03-17T00:31:37;9.97;;;7.83;;
18716;SDS011;9487;50.892;6.906;2024-03-17T00:34:04;11.23;;;7.83;;
18716;SDS011;9487;50.892;6.906;2024-03-17T00:36:30;11.13;;;7.93;;
18716;SDS011;9487;50.892;6.906;2024-03-17T00:38:57;9.03;;;7.67;;
18716;SDS011;9487;50.892;6.906;2024-03-17T00:41:24;9.67;;;8.20;;
18716;SDS011;9487;50.892;6.906;2024-03-17T00:43:51;9.30;;;8.13;;
18716;SDS011;9487;50.892;6.906;2024-03-17T00:46:17;11.27;;;8.33;;
18716;SDS011;9487;50.892;6.906;2024-03-17T00:48:46;8.97;;;8.07;;
18716;SDS011;9487;50.892;6.906;2024-03-17T00:51:13;9.93;;;8.07;;
18716;SDS011;9487;50.892;6.906;2024-03-17T00:53:39;9.00;;;8.10;;
18716;SDS011;9487;50.892;6.906;2024-03-17T00:56:05;9.30;;;8.17;;
18716;SDS011;9487;50.892;6.906;2024-03-17T00:58:34;10.80;;;8.70;;
18716;SDS011;9487;50.892;6.906;2024-03-17T01:01:00;11.53;;;9.10;;
18716;SDS011;9487;50.892;6.906;2024-03-17T01:03:27;9.00;;;8.10;;
18716;SDS011;9487;50.892;6.906;2024-03-17T01:05:53;10.27;;;8.77;;
18716;SDS011;9487;50.892;6.906;2024-03-17T01:08:20;10.73;;;8.23;;
18716;SDS011;9487;50.892;6.906;2024-03-17T01:10:46;9.03;;;8.13;;
18716;SDS011;9487;50.892;6.906;2024-03-17T01:13:15;10.30;;;8.87;;
18716;SDS011;9487;50.892;6.906;2024-03-17T01:15:43;11.43;;;8.73;;
18716;SDS011;9487;50.892;6.906;2024-03-17T01:18:10;11.43;;;9.07;;
18716;SDS011;9487;50.892;6.906;2024-03-17T01:20:36;9.70;;;8.40;;
18716;SDS011;9487;50.892;6.906;2024-03-17T01:23:03;8.83;;;8.03;;
18716;SDS011;9487;50.892;6.906;2024-03-17T01:25:30;9.83;;;8.83;;
18716;SDS011;9487;50.892;6.906;2024-03-17T01:27:57;10.90;;;8.30;;
18716;SDS011;9487;50.892;6.906;2024-03-17T01:30:23;10.03;;;9.00;;
18716;SDS011;9487;50.892;6.906;2024-03-17T01:32:53;10.77;;;8.90;;
18716;SDS011;9487;50.892;6.906;2024-03-17T01:35:21;10.10;;;9.10;;
18716;SDS011;9487;50.892;6.906;2024-03-17T01:37:48;8.03;;;7.23;;
18716;SDS011;9487;50.892;6.906;2024-03-17T01:40:15;10.73;;;8.50;;
18716;SDS011;9487;50.892;6.906;2024-03-17T01:42:41;9.60;;;8.60;;
18716;SDS011;9487;50.892;6.906;2024-03-17T01:45:18;10.23;;;8.70;;
18716;SDS011;9487;50.892;6.906;2024-03-17T01:47:50;9.77;;;8.77;;
18716;SDS011;9487;50.892;6.906;2024-03-17T01:50:18;9.00;;;8.10;;
18716;SDS011;9487;50.892;6.906;2024-03-17T01:52:49;9.07;;;8.17;;
18716;SDS011;9487;50.892;6.906;2024-03-17T01:55:18;10.03;;;8.73;;
18716;SDS011;9487;50.892;6.906;2024-03-17T01:57:44;10.40;;;8.37;;
18716;SDS011;9487;50.892;6.906;2024-03-17T02:00:11;9.50;;;8.50;;
18716;SDS011;9487;50.892;6.906;2024-03-17T02:02:39;9.70;;;8.43;;
18716;SDS011;9487;50.892;6.906;2024-03-17T02:05:06;9.70;;;8.70;;
18716;SDS011;9487;50.892;6.906;2024-03-17T02:07:33;9.87;;;8.80;;
18716;SDS011;9487;50.892;6.906;2024-03-17T02:10:01;9.73;;;8.73;;
18716;SDS011;9487;50.892;6.906;2024-03-17T02:12:28;9.40;;;8.37;;
18716;SDS011;9487;50.892;6.906;2024-03-17T02:14:56;12.07;;;8.33;;
18716;SDS011;9487;50.892;6.906;2024-03-17T02:17:23;10.57;;;8.43;;
18716;SDS011;9487;50.892;6.906;2024-03-17T02:19:50;10.50;;;8.80;;
18716;SDS011;9487;50.892;6.906;2024-03-17T02:22:18;9.80;;;8.50;;
18716;SDS011;9487;50.892;6.906;2024-03-17T02:24:45;11.57;;;8.50;;
18716;SDS011;9487;50.892;6.906;2024-03-17T02:27:11;11.33;;;8.80;;
18716;SDS011;9487;50.892;6.906;2024-03-17T02:29:38;9.63;;;8.63;;
18716;SDS011;9487;50.892;6.906;2024-03-17T02:32:04;9.37;;;7.90;;
18716;SDS011;9487;50.892;6.906;2024-03-17T02:34:32;10.33;;;8.20;;
18716;SDS011;9487;50.892;6.906;2024-03-17T02:36:58;10.17;;;8.40;;
18716;SDS011;9487;50.892;6.906;2024-03-17T02:39:28;8.87;;;7.97;;
18716;SDS011;9487;50.892;6.906;2024-03-17T02:41:59;9.77;;;8.10;;
18716;SDS011;9487;50.892;6.906;2024-03-17T02:44:26;9.50;;;8.10;;
18716;SDS011;9487;50.892;6.906;2024-03-17T02:46:54;8.87;;;7.97;;
18716;SDS011;9487;50.892;6.906;2024-03-17T02:49:20;8.73;;;7.83;;
18716;SDS011;9487;50.892;6.906;2024-03-17T02:51:47;8.33;;;7.53;;
18716;SDS011;9487;50.892;6.906;2024-03-17T02:54:15;9.47;;;8.47;;
18716;SDS011;9487;50.892;6.906;2024-03-17T02:56:43;10.53;;;8.23;;
18716;SDS011;9487;50.892;6.906;2024-03-17T02:59:10;9.33;;;8.30;;
18716;SDS011;9487;50.892;6.906;2024-03-17T03:01:37;9.97;;;8.67;;
18716;SDS011;9487;50.892;6.906;2024-03-17T03:04:04;9.70;;;8.80;;
18716;SDS011;9487;50.892;6.906;2024-03-17T03:06:31;8.53;;;7.63;;
18716;SDS011;9487;50.892;6.906;2024-03-17T03:08:59;10.03;;;7.90;;
18716;SDS011;9487;50.892;6.906;2024-03-17T03:11:26;9.30;;;8.10;;
18716;SDS011;9487;50.892;6.906;2024-03-17T03:13:54;9.63;;;7.87;;
18716;SDS011;9487;50.892;6.906;2024-03-17T03:16:21;10.80;;;8.13;;
18716;SDS011;9487;50.892;6.906;2024-03-17T03:18:50;10.00;;;8.90;;
18716;SDS011;9487;50.892;6.906;2024-03-17T03:21:18;8.80;;;7.77;;
18716;SDS011;9487;50.892;6.906;2024-03-17T03:23:46;9.63;;;8.63;;
18716;SDS011;9487;50.892;6.906;2024-03-17T03:26:13;9.50;;;7.83;;
18716;SDS011;9487;50.892;6.906;2024-03-17T03:28:40;9.07;;;8.27;;
18716;SDS011;9487;50.892;6.906;2024-03-17T03:31:11;11.50;;;8.80;;
18716;SDS011;9487;50.892;6.906;2024-03-17T03:33:39;9.57;;;8.57;;
18716;SDS011;9487;50.892;6.906;2024-03-17T03:36:07;10.43;;;8.67;;
18716;SDS011;9487;50.892;6.906;2024-03-17T03:38:35;10.13;;;9.13;;
18716;SDS011;9487;50.892;6.906;2024-03-17T03:41:05;11.17;;;9.10;;
18716;SDS011;9487;50.892;6.906;2024-03-17T03:43:34;10.90;;;8.83;;
18716;SDS011;9487;50.892;6.906;2024-03-17T03:46:01;9.90;;;8.83;;
18716;SDS011;9487;50.892;6.906;2024-03-17T03:48:29;10.70;;;8.77;;
18716;SDS011;9487;50.892;6.906;2024-03-17T03:50:57;9.73;;;8.73;;
18716;SDS011;9487;50.892;6.906;2024-03-17T03:53:25;10.10;;;8.40;;
18716;SDS011;9487;50.892;6.906;2024-03-17T03:55:52;9.50;;;8.60;;
18716;SDS011;9487;50.892;6.906;2024-03-17T03:58:18;10.30;;;8.93;;
18716;SDS011;9487;50.892;6.906;2024-03-17T04:00:48;9.77;;;8.07;;
18716;SDS011;9487;50.892;6.906;2024-03-17T04:03:15;8.90;;;7.77;;
18716;SDS011;9487;50.892;6.906;2024-03-17T04:05:43;9.83;;;7.80;;
18716;SDS011;9487;50.892;6.906;2024-03-17T04:08:10;10.17;;;7.80;;
18716;SDS011;9487;50.892;6.906;2024-03-17T04:10:37;8.60;;;7.53;;
18716;SDS011;9487;50.892;6.906;2024-03-17T04:13:04;8.87;;;8.07;;
18716;SDS011;9487;50.892;6.906;2024-03-17T04:15:31;8.83;;;7.87;;
18716;SDS011;9487;50.892;6.906;2024-03-17T04:17:59;9.13;;;8.10;;
18716;SDS011;9487;50.892;6.906;2024-03-17T04:20:27;8.93;;;7.90;;
18716;SDS011;9487;50.892;6.906;2024-03-17T04:22:55;9.17;;;8.23;;
18716;SDS011;9487;50.892;6.906;2024-03-17T04:25:23;8.50;;;7.57;;
18716;SDS011;9487;50.892;6.906;2024-03-17T04:27:50;8.53;;;7.73;;
18716;SDS011;9487;50.892;6.906;2024-03-17T04:30:16;10.90;;;8.37;;
18716;SDS011;9487;50.892;6.906;2024-03-17T04:32:43;9.50;;;8.47;;
18716;SDS011;9487;50.892;6.906;2024-03-17T04:35:10;10.07;;;7.77;;
18716;SDS011;9487;50.892;6.906;2024-03-17T04:37:37;9.67;;;8.13;;
18716;SDS011;9487;50.892;6.906;2024-03-17T04:40:08;10.87;;;8.37;;
18716;SDS011;9487;50.892;6.906;2024-03-17T04:42:38;10.63;;;8.33;;
18716;SDS011;9487;50.892;6.906;2024-03-17T04:45:05;11.03;;;8.63;;
18716;SDS011;9487;50.892;6.906;2024-03-17T04:47:34;10.57;;;8.37;;
18716;SDS011;9487;50.892;6.906;2024-03-17T04:50:02;11.53;;;8.97;;
18716;SDS011;9487;50.892;6.906;2024-03-17T04:52:30;11.23;;;9.20;;
18716;SDS011;9487;50.892;6.906;2024-03-17T04:54:57;10.13;;;9.10;;
18716;SDS011;9487;50.892;6.906;2024-03-17T04:57:25;10.37;;;8.80;;
18716;SDS011;9487;50.892;6.906;2024-03-17T04:59:52;11.00;;;9.90;;
18716;SDS011;9487;50.892;6.906;2024-03-17T05:02:19;12.17;;;9.80;;
18716;SDS011;9487;50.892;6.906;2024-03-17T05:04:48;10.47;;;9.17;;
18716;SDS011;9487;50.892;6.906;2024-03-17T05:07:14;11.03;;;9.53;;
18716;SDS011;9487;50.892;6.906;2024-03-17T05:09:41;12.73;;;9.33;;
18716;SDS011;9487;50.892;6.906;2024-03-17T05:12:09;10.93;;;9.40;;
18716;SDS011;9487;50.892;6.906;2024-03-17T05:14:38;11.13;;;9.43;;
18716;SDS011;9487;50.892;6.906;2024-03-17T05:17:05;10.97;;;9.50;;
18716;SDS011;9487;50.892;6.906;2024-03-17T05:19:32;10.63;;;9.57;;
18716;SDS011;9487;50.892;6.906;2024-03-17T05:21:59;11.03;;;9.80;;
18716;SDS011;9487;50.892;6.906;2024-03-17T05:24:26;10.47;;;9.43;;
18716;SDS011;9487;50.892;6.906;2024-03-17T05:26:53;10.57;;;9.53;;
18716;SDS011;9487;50.892;6.906;2024-03-17T05:29:20;11.10;;;9.53;;
18716;SDS011;9487;50.892;6.906;2024-03-17T05:31:49;10.03;;;8.90;;
18716;SDS011;9487;50.892;6.906;2024-03-17T05:34:16;10.70;;;9.23;;
18716;SDS011;9487;50.892;6.906;2024-03-17T05:36:43;12.00;;;9.80;;
18716;SDS011;9487;50.892;6.906;2024-03-17T05:39:12;11.27;;;9.60;;
18716;SDS011;9487;50.892;6.906;2024-03-17T05:41:39;11.73;;;8.90;;
18716;SDS011;9487;50.892;6.906;2024-03-17T05:44:06;12.70;;;9.40;;
18716;SDS011;9487;50.892;6.906;2024-03-17T05:46:33;9.93;;;8.93;;
18716;SDS011;9487;50.892;6.906;2024-03-17T05:49:01;9.87;;;8.80;;
18716;SDS011;9487;50.892;6.906;2024-03-17T05:51:29;10.87;;;8.17;;
18716;SDS011;9487;50.892;6.906;2024-03-17T05:53:56;8.17;;;7.37;;
18716;SDS011;9487;50.892;6.906;2024-03-17T05:56:24;8.90;;;8.07;;
18716;SDS011;9487;50.892;6.906;2024-03-17T05:58:51;9.90;;;8.33;;
18716;SDS011;9487;50.892;6.906;2024-03-17T06:01:18;7.97;;;7.17;;
18716;SDS011;9487;50.892;6.906;2024-03-17T06:03:47;8.37;;;7.57;;
18716;SDS011;9487;50.892;6.906;2024-03-17T06:06:15;10.73;;;7.20;;
18716;SDS011;9487;50.892;6.906;2024-03-17T06:08:42;8.27;;;7.47;;
18716;SDS011;9487;50.892;6.906;2024-03-17T06:11:10;8.10;;;7.30;;
18716;SDS011;9487;50.892;6.906;2024-03-17T06:13:37;8.23;;;7.37;;
18716;SDS011;9487;50.892;6.906;2024-03-17T06:16:04;9.77;;;7.60;;
18716;SDS011;9487;50.892;6.906;2024-03-17T06:18:31;8.97;;;7.27;;
18716;SDS011;9487;50.892;6.906;2024-03-17T06:20:58;8.57;;;7.70;;
18716;SDS011;9487;50.892;6.906;2024-03-17T06:23:26;8.30;;;7.40;;
18716;SDS011;9487;50.892;6.906;2024-03-17T06:25:53;8.37;;;7.37;;
18716;SDS011;9487;50.892;6.906;2024-03-17T06:28:21;10.17;;;7.47;;
18716;SDS011;9487;50.892;6.906;2024-03-17T06:30:55;8.87;;;7.83;;
18716;SDS011;9487;50.892;6.906;2024-03-17T06:33:25;9.33;;;8.43;;
18716;SDS011;9487;50.892;6.906;2024-03-17T06:35:53;9.07;;;7.90;;
18716;SDS011;9487;50.892;6.906;2024-03-17T06:38:20;10.33;;;9.20;;
18716;SDS011;9487;50.892;6.906;2024-03-17T06:40:51;9.87;;;8.90;;
18716;SDS011;9487;50.892;6.906;2024-03-17T06:43:18;10.30;;;8.10;;
18716;SDS011;9487;50.892;6.906;2024-03-17T06:45:55;10.20;;;8.13;;
18716;SDS011;9487;50.892;6.906;2024-03-17T06:48:23;9.30;;;8.20;;
18716;SDS011;9487;50.892;6.906;2024-03-17T06:50:50;10.10;;;8.03;;
18716;SDS011;9487;50.892;6.906;2024-03-17T06:53:19;8.00;;;7.20;;
18716;SDS011;9487;50.892;6.906;2024-03-17T06:55:53;8.93;;;8.03;;
18716;SDS011;9487;50.892;6.906;2024-03-17T06:58:21;9.00;;;8.10;;
18716;SDS011;9487;50.892;6.906;2024-03-17T07:00:52;11.37;;;8.57;;
18716;SDS011;9487;50.892;6.906;2024-03-17T07:03:25;8.07;;;7.27;;
18716;SDS011;9487;50.892;6.906;2024-03-17T07:05:53;8.37;;;7.17;;
18716;SDS011;9487;50.892;6.906;2024-03-17T07:08:20;7.83;;;7.13;;
18716;SDS011;9487;50.892;6.906;2024-03-17T07:10:56;7.60;;;6.80;;
18716;SDS011;9487;50.892;6.906;2024-03-17T07:13:23;8.27;;;7.20;;
18716;SDS011;9487;50.892;6.906;2024-03-17T07:15:50;7.53;;;6.83;;
18716;SDS011;9487;50.892;6.906;2024-03-17T07:18:17;8.70;;;7.33;;
18716;SDS011;9487;50.892;6.906;2024-03-17T07:20:44;9.77;;;7.37;;
18716;SDS011;9487;50.892;6.906;2024-03-17T07:23:13;7.57;;;6.87;;
18716;SDS011;9487;50.892;6.906;2024-03-17T07:25:40;8.70;;;7.20;;
18716;SDS011;9487;50.892;6.906;2024-03-17T07:28:09;9.10;;;7.33;;
18716;SDS011;9487;50.892;6.906;2024-03-17T07:30:35;7.23;;;6.40;;
18716;SDS011;9487;50.892;6.906;2024-03-17T07:33:02;7.80;;;6.40;;
18716;SDS011;9487;50.892;6.906;2024-03-17T07:35:29;7.80;;;7.00;;
18716;SDS011;9487;50.892;6.906;2024-03-17T07:37:56;7.80;;;6.30;;
18716;SDS011;9487;50.892;6.906;2024-03-17T07:40:23;7.60;;;6.67;;
18716;SDS011;9487;50.892;6.906;2024-03-17T07:42:50;7.10;;;6.40;;
18716;SDS011;9487;50.892;6.906;2024-03-17T07:45:19;7.90;;;6.90;;
18716;SDS011;9487;50.892;6.906;2024-03-17T07:47:46;8.17;;;6.60;;
18716;SDS011;9487;50.892;6.906;2024-03-17T07:50:16;7.33;;;6.10;;
18716;SDS011;9487;50.892;6.906;2024-03-17T07:52:43;7.70;;;6.90;;
18716;SDS011;9487;50.892;6.906;2024-03-17T07:55:10;8.20;;;6.47;;
18716;SDS011;9487;50.892;6.906;2024-03-17T07:57:38;7.80;;;6.63;;
18716;SDS011;9487;50.892;6.906;2024-03-17T08:00:06;6.90;;;6.20;;
18716;SDS011;9487;50.892;6.906;2024-03-17T08:02:42;9.53;;;6.90;;
18716;SDS011;9487;50.892;6.906;2024-03-17T08:05:11;8.50;;;6.60;;
18716;SDS011;9487;50.892;6.906;2024-03-17T08:07:38;8.00;;;6.80;;
18716;SDS011;9487;50.892;6.906;2024-03-17T08:10:07;8.17;;;6.30;;
18716;SDS011;9487;50.892;6.906;2024-03-17T08:12:34;7.10;;;5.77;;
18716;SDS011;9487;50.892;6.906;2024-03-17T08:15:01;6.00;;;5.50;;
18716;SDS011;9487;50.892;6.906;2024-03-17T08:17:29;7.10;;;6.33;;
18716;SDS011;9487;50.892;6.906;2024-03-17T08:19:58;7.33;;;5.83;;
18716;SDS011;9487;50.892;6.906;2024-03-17T08:22:25;7.20;;;5.97;;
18716;SDS011;9487;50.892;6.906;2024-03-17T08:24:51;6.63;;;5.90;;
18716;SDS011;9487;50.892;6.906;2024-03-17T08:27:18;7.27;;;6.00;;
18716;SDS011;9487;50.892;6.906;2024-03-17T08:29:45;8.03;;;6.20;;
18716;SDS011;9487;50.892;6.906;2024-03-17T08:32:12;7.43;;;6.50;;
18716;SDS011;9487;50.892;6.906;2024-03-17T08:34:40;7.43;;;6.23;;
18716;SDS011;9487;50.892;6.906;2024-03-17T08:37:08;7.07;;;6.37;;
18716;SDS011;9487;50.892;6.906;2024-03-17T08:39:35;7.93;;;6.20;;
18716;SDS011;9487;50.892;6.906;2024-03-17T08:42:02;6.03;;;5.53;;
18716;SDS011;9487;50.892;6.906;2024-03-17T08:44:29;6.67;;;5.97;;
18716;SDS011;9487;50.892;6.906;2024-03-17T08:46:56;7.00;;;6.00;;
18716;SDS011;9487;50.892;6.906;2024-03-17T08:49:23;6.50;;;5.53;;
18716;SDS011;9487;50.892;6.906;2024-03-17T08:51:51;5.13;;;4.57;;
18716;SDS011;9487;50.892;6.906;2024-03-17T08:54:19;5.97;;;4.93;;
18716;SDS011;9487;50.892;6.906;2024-03-17T08:56:46;7.33;;;5.63;;
18716;SDS011;9487;50.892;6.906;2024-03-17T08:59:14;5.83;;;5.20;;
18716;SDS011;9487;50.892;6.906;2024-03-17T09:01:41;6.50;;;5.90;;
18716;SDS011;9487;50.892;6.906;2024-03-17T09:04:08;6.70;;;5.97;;
18716;SDS011;9487;50.892;6.906;2024-03-17T09:06:36;6.57;;;5.90;;
18716;SDS011;9487;50.892;6.906;2024-03-17T09:09:03;6.30;;;5.40;;
18716;SDS011;9487;50.892;6.906;2024-03-17T09:11:32;5.97;;;5.47;;
18716;SDS011;9487;50.892;6.906;2024-03-17T09:13:59;5.67;;;5.13;;
18716;SDS011;9487;50.892;6.906;2024-03-17T09:16:26;7.00;;;5.30;;
18716;SDS011;9487;50.892;6.906;2024-03-17T09:18:55;6.43;;;5.50;;
18716;SDS011;9487;50.892;6.906;2024-03-17T09:21:22;6.20;;;5.30;;
18716;SDS011;9487;50.892;6.906;2024-03-17T09:23:49;5.20;;;4.70;;
18716;SDS011;9487;50.892;6.906;2024-03-17T09:26:16;5.60;;;5.10;;
18716;SDS011;9487;50.892;6.906;2024-03-17T09:28:44;7.30;;;5.53;;
18716;SDS011;9487;50.892;6.906;2024-03-17T09:31:11;5.77;;;5.10;;
18716;SDS011;9487;50.892;6.906;2024-03-17T09:33:39;4.90;;;4.37;;
18716;SDS011;9487;50.892;6.906;2024-03-17T09:36:07;5.73;;;4.27;;
18716;SDS011;9487;50.892;6.906;2024-03-17T09:38:36;4.80;;;3.93;;
18716;SDS011;9487;50.892;6.906;2024-03-17T09:41:03;4.67;;;4.17;;
18716;SDS011;9487;50.892;6.906;2024-03-17T09:43:32;5.70;;;4.77;;
18716;SDS011;9487;50.892;6.906;2024-03-17T09:46:03;5.20;;;4.40;;
18716;SDS011;9487;50.892;6.906;2024-03-17T09:48:30;6.07;;;4.23;;
18716;SDS011;9487;50.892;6.906;2024-03-17T09:50:58;6.10;;;4.73;;
18716;SDS011;9487;50.892;6.906;2024-03-17T09:53:27;4.60;;;4.20;;
18716;SDS011;9487;50.892;6.906;2024-03-17T09:55:57;4.50;;;4.10;;
18716;SDS011;9487;50.892;6.906;2024-03-17T09:58:24;4.63;;;4.23;;
18716;SDS011;9487;50.892;6.906;2024-03-17T10:00:51;5.13;;;4.63;;
18716;SDS011;9487;50.892;6.906;2024-03-17T10:06:10;5.83;;;4.17;;
18716;SDS011;9487;50.892;6.906;2024-03-17T10:08:44;4.90;;;4.23;;
18716;SDS011;9487;50.892;6.906;2024-03-17T10:11:12;4.67;;;3.83;;
18716;SDS011;9487;50.892;6.906;2024-03-17T10:13:40;4.87;;;4.27;;
18716;SDS011;9487;50.892;6.906;2024-03-17T10:16:20;7.33;;;4.43;;
18716;SDS011;9487;50.892;6.906;2024-03-17T10:18:54;5.70;;;4.20;;
18716;SDS011;9487;50.892;6.906;2024-03-17T10:21:32;5.30;;;4.10;;
18716;SDS011;9487;50.892;6.906;2024-03-17T10:24:08;5.17;;;4.10;;
18716;SDS011;9487;50.892;6.906;2024-03-17T10:26:36;3.93;;;3.63;;
18716;SDS011;9487;50.892;6.906;2024-03-17T10:29:05;6.43;;;4.30;;
18716;SDS011;9487;50.892;6.906;2024-03-17T10:31:44;5.97;;;4.50;;
18716;SDS011;9487;50.892;6.906;2024-03-17T10:34:14;4.97;;;4.37;;
18716;SDS011;9487;50.892;6.906;2024-03-17T10:36:43;5.63;;;4.00;;
18716;SDS011;9487;50.892;6.906;2024-03-17T10:39:18;7.83;;;5.60;;
18716;SDS011;9487;50.892;6.906;2024-03-17T10:41:54;4.70;;;4.20;;
18716;SDS011;9487;50.892;6.906;2024-03-17T10:44:22;5.37;;;3.80;;
18716;SDS011;9487;50.892;6.906;2024-03-17T10:46:49;4.43;;;4.03;;
18716;SDS011;9487;50.892;6.906;2024-03-17T10:49:21;4.37;;;3.97;;
18716;SDS011;9487;50.892;6.906;2024-03-17T10:51:52;6.43;;;4.17;;
18716;SDS011;9487;50.892;6.906;2024-03-17T10:54:24;5.00;;;3.93;;
18716;SDS011;9487;50.892;6.906;2024-03-17T10:56:53;5.20;;;4.33;;
18716;SDS011;9487;50.892;6.906;2024-03-17T10:59:22;4.37;;;4.07;;
18716;SDS011;9487;50.892;6.906;2024-03-17T11:01:59;4.80;;;4.30;;
18716;SDS011;9487;50.892;6.906;2024-03-17T11:04:29;4.37;;;3.97;;
18716;SDS011;9487;50.892;6.906;2024-03-17T11:06:56;4.33;;;3.93;;
18716;SDS011;9487;50.892;6.906;2024-03-17T11:09:25;4.13;;;3.73;;
18716;SDS011;9487;50.892;6.906;2024-03-17T11:11:53;5.00;;;4.10;;
18716;SDS011;9487;50.892;6.906;2024-03-17T11:14:20;7.00;;;3.77;;
18716;SDS011;9487;50.892;6.906;2024-03-17T11:16:48;4.73;;;3.80;;
18716;SDS011;9487;50.892;6.906;2024-03-17T11:19:15;4.00;;;3.70;;
18716;SDS011;9487;50.892;6.906;2024-03-17T11:21:45;4.93;;;4.43;;
18716;SDS011;9487;50.892;6.906;2024-03-17T11:24:20;4.40;;;4.00;;
18716;SDS011;9487;50.892;6.906;2024-03-17T11:26:48;4.53;;;4.00;;
18716;SDS011;9487;50.892;6.906;2024-03-17T11:29:27;3.83;;;3.40;;
18716;SDS011;9487;50.892;6.906;2024-03-17T11:31:55;4.60;;;3.77;;
18716;SDS011;9487;50.892;6.906;2024-03-17T11:34:28;4.47;;;3.80;;
18716;SDS011;9487;50.892;6.906;2024-03-17T11:37:01;4.70;;;3.70;;
18716;SDS011;9487;50.892;6.906;2024-03-17T11:39:45;4.93;;;4.53;;
18716;SDS011;9487;50.892;6.906;2024-03-17T11:42:14;5.07;;;4.30;;
18716;SDS011;9487;50.892;6.906;2024-03-17T11:44:42;8.30;;;4.10;;
18716;SDS011;9487;50.892;6.906;2024-03-17T11:47:10;6.00;;;4.10;;
18716;SDS011;9487;50.892;6.906;2024-03-17T11:49:38;4.60;;;4.17;;
18716;SDS011;9487;50.892;6.906;2024-03-17T11:52:08;5.30;;;4.77;;
18716;SDS011;9487;50.892;6.906;2024-03-17T11:54:36;5.93;;;4.50;;
18716;SDS011;9487;50.892;6.906;2024-03-17T11:57:03;5.53;;;4.30;;
18716;SDS011;9487;50.892;6.906;2024-03-17T11:59:31;7.57;;;4.63;;
18716;SDS011;9487;50.892;6.906;2024-03-17T12:01:57;5.03;;;3.90;;
18716;SDS011;9487;50.892;6.906;2024-03-17T12:04:25;6.00;;;4.60;;
18716;SDS011;9487;50.892;6.906;2024-03-17T12:06:51;4.50;;;4.07;;
18716;SDS011;9487;50.892;6.906;2024-03-17T12:09:21;5.37;;;3.63;;
18716;SDS011;9487;50.892;6.906;2024-03-17T12:11:49;5.20;;;4.70;;
18716;SDS011;9487;50.892;6.906;2024-03-17T12:14:17;6.93;;;4.70;;
18716;SDS011;9487;50.892;6.906;2024-03-17T12:16:51;5.13;;;4.63;;
18716;SDS011;9487;50.892;6.906;2024-03-17T12:19:19;4.87;;;4.37;;
18716;SDS011;9487;50.892;6.906;2024-03-17T12:21:46;4.50;;;4.10;;
18716;SDS011;9487;50.892;6.906;2024-03-17T12:24:15;5.50;;;4.00;;
18716;SDS011;9487;50.892;6.906;2024-03-17T12:26:44;3.83;;;3.40;;
18716;SDS011;9487;50.892;6.906;2024-03-17T12:29:22;4.40;;;3.83;;
18716;SDS011;9487;50.892;6.906;2024-03-17T12:31:50;4.40;;;4.00;;
18716;SDS011;9487;50.892;6.906;2024-03-17T12:34:18;4.10;;;3.70;;
18716;SDS011;9487;50.892;6.906;2024-03-17T12:36:44;4.20;;;3.77;;
18716;SDS011;9487;50.892;6.906;2024-03-17T12:39:15;4.63;;;3.77;;
18716;SDS011;9487;50.892;6.906;2024-03-17T12:41:45;4.17;;;3.60;;
18716;SDS011;9487;50.892;6.906;2024-03-17T12:44:27;4.87;;;3.20;;
18716;SDS011;9487;50.892;6.906;2024-03-17T12:46:56;4.17;;;3.70;;
18716;SDS011;9487;50.892;6.906;2024-03-17T12:49:25;4.37;;;3.80;;
18716;SDS011;9487;50.892;6.906;2024-03-17T12:51:51;4.47;;;3.50;;
18716;SDS011;9487;50.892;6.906;2024-03-17T12:54:19;5.07;;;3.80;;
18716;SDS011;9487;50.892;6.906;2024-03-17T12:56:49;4.33;;;3.83;;
18716;SDS011;9487;50.892;6.906;2024-03-17T12:59:40;4.37;;;3.37;;
18716;SDS011;9487;50.892;6.906;2024-03-17T13:02:33;5.77;;;3.67;;
18716;SDS011;9487;50.892;6.906;2024-03-17T13:07:48;3.73;;;2.97;;
18716;SDS011;9487;50.892;6.906;2024-03-17T13:10:16;4.57;;;3.60;;
18716;SDS011;9487;50.892;6.906;2024-03-17T13:12:45;3.70;;;3.40;;
18716;SDS011;9487;50.892;6.906;2024-03-17T13:15:13;4.10;;;3.63;;
18716;SDS011;9487;50.892;6.906;2024-03-17T13:17:41;4.27;;;3.77;;
18716;SDS011;9487;50.892;6.906;2024-03-17T13:20:08;4.23;;;3.80;;
18716;SDS011;9487;50.892;6.906;2024-03-17T13:22:40;4.50;;;3.83;;
18716;SDS011;9487;50.892;6.906;2024-03-17T13:25:12;4.37;;;3.57;;
18716;SDS011;9487;50.892;6.906;2024-03-17T13:27:41;6.07;;;4.23;;
18716;SDS011;9487;50.892;6.906;2024-03-17T13:30:10;4.53;;;4.10;;
18716;SDS011;9487;50.892;6.906;2024-03-17T13:32:37;3.77;;;3.47;;
18716;SDS011;9487;50.892;6.906;2024-03-17T13:35:05;4.93;;;3.87;;
18716;SDS011;9487;50.892;6.906;2024-03-17T13:37:33;3.80;;;3.40;;
18716;SDS011;9487;50.892;6.906;2024-03-17T13:40:02;4.17;;;3.50;;
18716;SDS011;9487;50.892;6.906;2024-03-17T13:42:30;4.37;;;3.53;;
18716;SDS011;9487;50.892;6.906;2024-03-17T13:44:57;4.50;;;3.50;;
18716;SDS011;9487;50.892;6.906;2024-03-17T13:47:25;6.07;;;3.70;;
18716;SDS011;9487;50.892;6.906;2024-03-17T13:49:52;5.77;;;4.20;;
18716;SDS011;9487;50.892;6.906;2024-03-17T13:52:19;4.47;;;3.90;;
18716;SDS011;9487;50.892;6.906;2024-03-17T13:54:47;4.93;;;3.33;;
18716;SDS011;9487;50.892;6.906;2024-03-17T13:57:14;5.57;;;4.00;;
18716;SDS011;9487;50.892;6.906;2024-03-17T13:59:41;4.43;;;3.87;;
18716;SDS011;9487;50.892;6.906;2024-03-17T14:02:09;4.77;;;3.90;;
18716;SDS011;9487;50.892;6.906;2024-03-17T14:04:40;5.33;;;3.60;;
18716;SDS011;9487;50.892;6.906;2024-03-17T14:07:07;4.93;;;3.83;;
18716;SDS011;9487;50.892;6.906;2024-03-17T14:09:34;5.63;;;3.70;;
18716;SDS011;9487;50.892;6.906;2024-03-17T14:12:02;4.97;;;3.93;;
18716;SDS011;9487;50.892;6.906;2024-03-17T14:14:29;4.33;;;3.90;;
18716;SDS011;9487;50.892;6.906;2024-03-17T14:16:56;4.93;;;3.70;;
18716;SDS011;9487;50.892;6.906;2024-03-17T14:19:23;4.80;;;4.07;;
18716;SDS011;9487;50.892;6.906;2024-03-17T14:21:51;4.10;;;3.53;;
18716;SDS011;9487;50.892;6.906;2024-03-17T14:24:19;5.80;;;3.70;;
18716;SDS011;9487;50.892;6.906;2024-03-17T14:26:46;4.10;;;3.70;;
18716;SDS011;9487;50.892;6.906;2024-03-17T14:29:13;4.90;;;3.27;;
18716;SDS011;9487;50.892;6.906;2024-03-17T14:31:41;4.67;;;3.80;;
18716;SDS011;9487;50.892;6.906;2024-03-17T14:34:09;4.40;;;3.23;;
18716;SDS011;9487;50.892;6.906;2024-03-17T14:36:36;5.20;;;3.53;;
18716;SDS011;9487;50.892;6.906;2024-03-17T14:39:04;4.30;;;3.20;;
18716;SDS011;9487;50.892;6.906;2024-03-17T14:41:33;3.77;;;3.30;;
18716;SDS011;9487;50.892;6.906;2024-03-17T14:43:59;4.40;;;3.30;;
18716;SDS011;9487;50.892;6.906;2024-03-17T14:46:26;4.33;;;3.07;;
18716;SDS011;9487;50.892;6.906;2024-03-17T14:48:53;5.27;;;3.20;;
18716;SDS011;9487;50.892;6.906;2024-03-17T14:51:20;3.57;;;2.70;;
18716;SDS011;9487;50.892;6.906;2024-03-17T14:53:47;4.80;;;3.50;;
18716;SDS011;9487;50.892;6.906;2024-03-17T14:56:17;5.13;;;3.20;;
18716;SDS011;9487;50.892;6.906;2024-03-17T14:58:45;4.10;;;3.47;;
18716;SDS011;9487;50.892;6.906;2024-03-17T15:01:12;5.53;;;3.47;;
18716;SDS011;9487;50.892;6.906;2024-03-17T15:03:39;5.53;;;3.40;;
18716;SDS011;9487;50.892;6.906;2024-03-17T15:06:08;4.40;;;3.20;;
18716;SDS011;9487;50.892;6.906;2024-03-17T15:08:36;3.73;;;3.00;;
18716;SDS011;9487;50.892;6.906;2024-03-17T15:11:03;5.70;;;3.10;;